sensor_id;sensor_type;location;lat;lon;timestamp;P1;durP1;ratioP1;P2;durP2;ratioP2
50569;SDS011;36525;49.398;7.614;2023-03-19T00:00:29;13.98;;;6.90;;
50569;SDS011;36525;49.398;7.614;2023-03-19T00:02:56;16.75;;;6.85;;
50569;SDS011;36525;49.398;7.614;2023-03-19T00:05:24;18.02;;;8.07;;
50569;SDS011;36525;49.398;7.614;2023-03-19T00:07:54;27.02;;;11.02;;
50569;SDS011;36525;49.398;7.614;2023-03-19T00:10:22;24.00;;;12.57;;
50569;SDS011;36525;49.398;7.614;2023-03-19T00:12:49;24.40;;;10.63;;
50569;SDS011;36525;49.398;7.614;2023-03-19T00:15:16;21.48;;;10.35;;
50569;SDS011;36525;49.398;7.614;2023-03-19T00:17:43;22.00;;;9.50;;
50569;SDS011;36525;49.398;7.614;2023-03-19T00:20:12;21.85;;;9.15;;
50569;SDS011;36525;49.398;7.614;2023-03-19T00:22:40;19.40;;;9.25;;
50569;SDS011;36525;49.398;7.614;2023-03-19T00:25:07;18.30;;;8.93;;
50569;SDS011;36525;49.398;7.614;2023-03-19T00:27:35;19.88;;;7.82;;
50569;SDS011;36525;49.398;7.614;2023-03-19T00:30:04;16.80;;;7.43;;
50569;SDS011;36525;49.398;7.614;2023-03-19T00:32:33;26.73;;;12.10;;
50569;SDS011;36525;49.398;7.614;2023-03-19T00:35:02;36.13;;;18.23;;
50569;SDS011;36525;49.398;7.614;2023-03-19T00:37:31;41.67;;;19.38;;
50569;SDS011;36525;49.398;7.614;2023-03-19T00:39:59;50.42;;;24.25;;
50569;SDS011;36525;49.398;7.614;2023-03-19T00:42:27;73.22;;;36.30;;
50569;SDS011;36525;49.398;7.614;2023-03-19T00:44:54;31.35;;;15.35;;
50569;SDS011;36525;49.398;7.614;2023-03-19T00:47:22;17.77;;;8.77;;
50569;SDS011;36525;49.398;7.614;2023-03-19T00:49:49;9.25;;;3.67;;
50569;SDS011;36525;49.398;7.614;2023-03-19T00:52:16;7.53;;;3.03;;
50569;SDS011;36525;49.398;7.614;2023-03-19T00:54:43;12.63;;;5.15;;
50569;SDS011;36525;49.398;7.614;2023-03-19T00:57:10;10.27;;;4.25;;
50569;SDS011;36525;49.398;7.614;2023-03-19T00:59:37;15.75;;;7.47;;
50569;SDS011;36525;49.398;7.614;2023-03-19T01:02:04;10.35;;;5.50;;
50569;SDS011;36525;49.398;7.614;2023-03-19T01:04:32;11.20;;;4.18;;
50569;SDS011;36525;49.398;7.614;2023-03-19T01:06:59;13.30;;;4.35;;
50569;SDS011;36525;49.398;7.614;2023-03-19T01:09:26;11.65;;;4.60;;
50569;SDS011;36525;49.398;7.614;2023-03-19T01:11:53;15.43;;;5.85;;
50569;SDS011;36525;49.398;7.614;2023-03-19T01:14:20;13.35;;;5.68;;
50569;SDS011;36525;49.398;7.614;2023-03-19T01:16:47;13.75;;;4.85;;
50569;SDS011;36525;49.398;7.614;2023-03-19T01:19:15;23.27;;;7.00;;
50569;SDS011;36525;49.398;7.614;2023-03-19T01:21:42;15.35;;;6.22;;
50569;SDS011;36525;49.398;7.614;2023-03-19T01:24:11;17.55;;;7.90;;
50569;SDS011;36525;49.398;7.614;2023-03-19T01:26:39;14.23;;;6.68;;
50569;SDS011;36525;49.398;7.614;2023-03-19T01:29:06;13.40;;;5.30;;
50569;SDS011;36525;49.398;7.614;2023-03-19T01:31:34;16.10;;;6.65;;
50569;SDS011;36525;49.398;7.614;2023-03-19T01:34:02;9.80;;;4.47;;
50569;SDS011;36525;49.398;7.614;2023-03-19T01:36:30;12.25;;;4.85;;
50569;SDS011;36525;49.398;7.614;2023-03-19T01:38:57;11.05;;;4.70;;
50569;SDS011;36525;49.398;7.614;2023-03-19T01:41:24;12.57;;;4.70;;
50569;SDS011;36525;49.398;7.614;2023-03-19T01:43:51;11.25;;;4.72;;
50569;SDS011;36525;49.398;7.614;2023-03-19T01:46:32;10.52;;;4.70;;
50569;SDS011;36525;49.398;7.614;2023-03-19T01:49:04;8.18;;;3.50;;
50569;SDS011;36525;49.398;7.614;2023-03-19T01:51:37;9.10;;;3.83;;
50569;SDS011;36525;49.398;7.614;2023-03-19T01:54:08;10.23;;;4.47;;
50569;SDS011;36525;49.398;7.614;2023-03-19T01:56:40;11.02;;;3.90;;
50569;SDS011;36525;49.398;7.614;2023-03-19T01:59:20;11.73;;;4.82;;
50569;SDS011;36525;49.398;7.614;2023-03-19T02:01:55;12.70;;;5.38;;
50569;SDS011;36525;49.398;7.614;2023-03-19T02:04:30;12.68;;;5.32;;
50569;SDS011;36525;49.398;7.614;2023-03-19T02:06:59;14.88;;;6.10;;
50569;SDS011;36525;49.398;7.614;2023-03-19T02:09:28;11.38;;;5.53;;
50569;SDS011;36525;49.398;7.614;2023-03-19T02:11:57;10.57;;;5.10;;
50569;SDS011;36525;49.398;7.614;2023-03-19T02:14:26;13.43;;;4.97;;
50569;SDS011;36525;49.398;7.614;2023-03-19T02:16:54;10.10;;;3.88;;
50569;SDS011;36525;49.398;7.614;2023-03-19T02:19:31;11.93;;;4.28;;
50569;SDS011;36525;49.398;7.614;2023-03-19T02:22:06;11.68;;;4.68;;
50569;SDS011;36525;49.398;7.614;2023-03-19T02:27:45;14.73;;;5.03;;
50569;SDS011;36525;49.398;7.614;2023-03-19T02:30:25;14.07;;;4.53;;
50569;SDS011;36525;49.398;7.614;2023-03-19T02:32:57;9.80;;;4.25;;
50569;SDS011;36525;49.398;7.614;2023-03-19T02:35:24;10.70;;;3.75;;
50569;SDS011;36525;49.398;7.614;2023-03-19T02:37:52;8.20;;;3.50;;
50569;SDS011;36525;49.398;7.614;2023-03-19T02:40:28;9.27;;;3.80;;
50569;SDS011;36525;49.398;7.614;2023-03-19T02:42:59;6.45;;;2.88;;
50569;SDS011;36525;49.398;7.614;2023-03-19T02:45:30;8.43;;;3.90;;
50569;SDS011;36525;49.398;7.614;2023-03-19T02:47:58;15.85;;;4.18;;
50569;SDS011;36525;49.398;7.614;2023-03-19T02:50:25;5.55;;;3.03;;
50569;SDS011;36525;49.398;7.614;2023-03-19T02:52:53;7.65;;;3.50;;
50569;SDS011;36525;49.398;7.614;2023-03-19T02:55:20;10.63;;;3.20;;
50569;SDS011;36525;49.398;7.614;2023-03-19T02:57:47;9.73;;;4.20;;
50569;SDS011;36525;49.398;7.614;2023-03-19T03:00:14;6.55;;;3.30;;
50569;SDS011;36525;49.398;7.614;2023-03-19T03:02:46;8.75;;;3.20;;
50569;SDS011;36525;49.398;7.614;2023-03-19T03:05:13;8.38;;;3.15;;
50569;SDS011;36525;49.398;7.614;2023-03-19T03:07:40;8.30;;;3.03;;
50569;SDS011;36525;49.398;7.614;2023-03-19T03:10:09;8.00;;;3.08;;
50569;SDS011;36525;49.398;7.614;2023-03-19T03:12:37;6.25;;;2.47;;
50569;SDS011;36525;49.398;7.614;2023-03-19T03:15:05;6.43;;;2.38;;
50569;SDS011;36525;49.398;7.614;2023-03-19T03:17:36;7.00;;;2.83;;
50569;SDS011;36525;49.398;7.614;2023-03-19T03:20:05;8.35;;;3.80;;
50569;SDS011;36525;49.398;7.614;2023-03-19T03:22:33;6.22;;;2.83;;
50569;SDS011;36525;49.398;7.614;2023-03-19T03:25:00;7.18;;;2.95;;
50569;SDS011;36525;49.398;7.614;2023-03-19T03:27:28;10.23;;;3.22;;
50569;SDS011;36525;49.398;7.614;2023-03-19T03:29:55;7.85;;;2.90;;
50569;SDS011;36525;49.398;7.614;2023-03-19T03:32:22;7.40;;;2.88;;
50569;SDS011;36525;49.398;7.614;2023-03-19T03:34:49;9.43;;;3.33;;
50569;SDS011;36525;49.398;7.614;2023-03-19T03:37:16;6.35;;;2.65;;
50569;SDS011;36525;49.398;7.614;2023-03-19T03:39:45;10.10;;;3.15;;
50569;SDS011;36525;49.398;7.614;2023-03-19T03:42:11;9.30;;;3.13;;
50569;SDS011;36525;49.398;7.614;2023-03-19T03:44:39;7.03;;;2.63;;
50569;SDS011;36525;49.398;7.614;2023-03-19T03:47:06;8.15;;;2.95;;
50569;SDS011;36525;49.398;7.614;2023-03-19T03:49:33;8.00;;;3.08;;
50569;SDS011;36525;49.398;7.614;2023-03-19T03:52:00;8.63;;;3.17;;
50569;SDS011;36525;49.398;7.614;2023-03-19T03:54:28;6.47;;;2.92;;
50569;SDS011;36525;49.398;7.614;2023-03-19T03:56:55;8.57;;;2.90;;
50569;SDS011;36525;49.398;7.614;2023-03-19T03:59:22;6.78;;;2.92;;
50569;SDS011;36525;49.398;7.614;2023-03-19T04:01:50;5.55;;;2.35;;
50569;SDS011;36525;49.398;7.614;2023-03-19T04:04:18;6.22;;;2.40;;
50569;SDS011;36525;49.398;7.614;2023-03-19T04:06:45;9.32;;;3.60;;
50569;SDS011;36525;49.398;7.614;2023-03-19T04:09:12;9.55;;;3.58;;
50569;SDS011;36525;49.398;7.614;2023-03-19T04:11:42;9.05;;;3.78;;
50569;SDS011;36525;49.398;7.614;2023-03-19T04:14:09;6.80;;;3.10;;
50569;SDS011;36525;49.398;7.614;2023-03-19T04:16:36;6.65;;;2.95;;
50569;SDS011;36525;49.398;7.614;2023-03-19T04:19:04;9.85;;;3.33;;
50569;SDS011;36525;49.398;7.614;2023-03-19T04:21:32;6.85;;;2.72;;
50569;SDS011;36525;49.398;7.614;2023-03-19T04:24:00;9.15;;;3.00;;
50569;SDS011;36525;49.398;7.614;2023-03-19T04:26:27;8.88;;;2.88;;
50569;SDS011;36525;49.398;7.614;2023-03-19T04:28:54;8.13;;;3.13;;
50569;SDS011;36525;49.398;7.614;2023-03-19T04:31:23;8.85;;;2.38;;
50569;SDS011;36525;49.398;7.614;2023-03-19T04:33:50;6.50;;;2.92;;
50569;SDS011;36525;49.398;7.614;2023-03-19T04:36:19;8.45;;;2.90;;
50569;SDS011;36525;49.398;7.614;2023-03-19T04:38:46;8.75;;;2.72;;
50569;SDS011;36525;49.398;7.614;2023-03-19T04:41:13;7.30;;;3.05;;
50569;SDS011;36525;49.398;7.614;2023-03-19T04:43:43;5.93;;;2.78;;
50569;SDS011;36525;49.398;7.614;2023-03-19T04:46:10;6.80;;;2.75;;
50569;SDS011;36525;49.398;7.614;2023-03-19T04:48:37;7.53;;;3.05;;
50569;SDS011;36525;49.398;7.614;2023-03-19T04:51:05;9.57;;;3.42;;
50569;SDS011;36525;49.398;7.614;2023-03-19T04:53:35;6.18;;;2.90;;
50569;SDS011;36525;49.398;7.614;2023-03-19T04:56:03;9.52;;;2.90;;
50569;SDS011;36525;49.398;7.614;2023-03-19T04:58:32;5.72;;;2.78;;
50569;SDS011;36525;49.398;7.614;2023-03-19T05:01:00;7.53;;;3.13;;
50569;SDS011;36525;49.398;7.614;2023-03-19T05:03:27;8.32;;;2.72;;
50569;SDS011;36525;49.398;7.614;2023-03-19T05:05:54;7.20;;;2.72;;
50569;SDS011;36525;49.398;7.614;2023-03-19T05:08:21;5.88;;;2.80;;
50569;SDS011;36525;49.398;7.614;2023-03-19T05:10:48;6.95;;;3.10;;
50569;SDS011;36525;49.398;7.614;2023-03-19T05:13:15;8.85;;;3.08;;
50569;SDS011;36525;49.398;7.614;2023-03-19T05:15:46;8.25;;;3.03;;
50569;SDS011;36525;49.398;7.614;2023-03-19T05:18:13;6.25;;;2.90;;
50569;SDS011;36525;49.398;7.614;2023-03-19T05:20:41;9.10;;;2.55;;
50569;SDS011;36525;49.398;7.614;2023-03-19T05:23:09;10.73;;;2.78;;
50569;SDS011;36525;49.398;7.614;2023-03-19T05:25:36;8.65;;;3.15;;
50569;SDS011;36525;49.398;7.614;2023-03-19T05:28:04;8.98;;;2.95;;
50569;SDS011;36525;49.398;7.614;2023-03-19T05:30:33;10.32;;;3.97;;
50569;SDS011;36525;49.398;7.614;2023-03-19T05:33:01;13.30;;;3.53;;
50569;SDS011;36525;49.398;7.614;2023-03-19T05:35:29;6.15;;;2.53;;
50569;SDS011;36525;49.398;7.614;2023-03-19T05:37:57;6.57;;;3.30;;
50569;SDS011;36525;49.398;7.614;2023-03-19T05:40:24;7.38;;;2.60;;
50569;SDS011;36525;49.398;7.614;2023-03-19T05:42:52;7.20;;;2.65;;
50569;SDS011;36525;49.398;7.614;2023-03-19T05:45:19;7.05;;;3.65;;
50569;SDS011;36525;49.398;7.614;2023-03-19T05:47:46;9.50;;;4.72;;
50569;SDS011;36525;49.398;7.614;2023-03-19T05:50:18;7.47;;;4.28;;
50569;SDS011;36525;49.398;7.614;2023-03-19T05:52:45;7.38;;;3.75;;
50569;SDS011;36525;49.398;7.614;2023-03-19T05:55:13;11.90;;;4.85;;
50569;SDS011;36525;49.398;7.614;2023-03-19T05:57:40;7.82;;;3.92;;
50569;SDS011;36525;49.398;7.614;2023-03-19T06:00:08;8.95;;;3.88;;
50569;SDS011;36525;49.398;7.614;2023-03-19T06:02:37;9.85;;;3.70;;
50569;SDS011;36525;49.398;7.614;2023-03-19T06:05:04;7.72;;;3.55;;
50569;SDS011;36525;49.398;7.614;2023-03-19T06:07:32;10.73;;;3.28;;
50569;SDS011;36525;49.398;7.614;2023-03-19T06:09:59;9.73;;;3.95;;
50569;SDS011;36525;49.398;7.614;2023-03-19T06:12:26;9.93;;;3.15;;
50569;SDS011;36525;49.398;7.614;2023-03-19T06:14:54;7.30;;;3.35;;
50569;SDS011;36525;49.398;7.614;2023-03-19T06:17:21;7.85;;;3.30;;
50569;SDS011;36525;49.398;7.614;2023-03-19T06:19:48;8.55;;;3.45;;
50569;SDS011;36525;49.398;7.614;2023-03-19T06:22:15;8.73;;;3.65;;
50569;SDS011;36525;49.398;7.614;2023-03-19T06:24:42;7.78;;;3.95;;
50569;SDS011;36525;49.398;7.614;2023-03-19T06:27:10;9.50;;;4.95;;
50569;SDS011;36525;49.398;7.614;2023-03-19T06:29:37;8.23;;;3.97;;
50569;SDS011;36525;49.398;7.614;2023-03-19T06:32:04;7.38;;;3.78;;
50569;SDS011;36525;49.398;7.614;2023-03-19T06:34:31;6.50;;;3.45;;
50569;SDS011;36525;49.398;7.614;2023-03-19T06:36:58;7.35;;;3.55;;
50569;SDS011;36525;49.398;7.614;2023-03-19T06:39:28;8.23;;;3.28;;
50569;SDS011;36525;49.398;7.614;2023-03-19T06:41:55;6.50;;;3.13;;
50569;SDS011;36525;49.398;7.614;2023-03-19T06:44:23;7.68;;;3.00;;
50569;SDS011;36525;49.398;7.614;2023-03-19T06:46:50;7.68;;;3.30;;
50569;SDS011;36525;49.398;7.614;2023-03-19T06:49:18;8.95;;;3.72;;
50569;SDS011;36525;49.398;7.614;2023-03-19T06:51:45;9.93;;;4.03;;
50569;SDS011;36525;49.398;7.614;2023-03-19T06:54:12;8.55;;;3.45;;
50569;SDS011;36525;49.398;7.614;2023-03-19T06:56:39;8.52;;;3.90;;
50569;SDS011;36525;49.398;7.614;2023-03-19T06:59:06;6.38;;;3.25;;
50569;SDS011;36525;49.398;7.614;2023-03-19T07:01:33;8.77;;;3.90;;
50569;SDS011;36525;49.398;7.614;2023-03-19T07:04:01;9.23;;;4.43;;
50569;SDS011;36525;49.398;7.614;2023-03-19T07:06:28;7.65;;;3.97;;
50569;SDS011;36525;49.398;7.614;2023-03-19T07:08:55;5.63;;;3.03;;
50569;SDS011;36525;49.398;7.614;2023-03-19T07:11:22;9.73;;;3.58;;
50569;SDS011;36525;49.398;7.614;2023-03-19T07:13:49;7.70;;;3.47;;
50569;SDS011;36525;49.398;7.614;2023-03-19T07:16:17;6.25;;;3.05;;
50569;SDS011;36525;49.398;7.614;2023-03-19T07:18:45;8.98;;;2.95;;
50569;SDS011;36525;49.398;7.614;2023-03-19T07:21:12;10.43;;;2.80;;
50569;SDS011;36525;49.398;7.614;2023-03-19T07:23:39;6.00;;;2.90;;
50569;SDS011;36525;49.398;7.614;2023-03-19T07:26:06;9.18;;;3.55;;
50569;SDS011;36525;49.398;7.614;2023-03-19T07:28:34;7.07;;;3.95;;
50569;SDS011;36525;49.398;7.614;2023-03-19T07:31:01;11.13;;;4.20;;
50569;SDS011;36525;49.398;7.614;2023-03-19T07:33:29;9.18;;;3.38;;
50569;SDS011;36525;49.398;7.614;2023-03-19T07:35:56;10.18;;;3.70;;
50569;SDS011;36525;49.398;7.614;2023-03-19T07:38:23;6.57;;;3.03;;
50569;SDS011;36525;49.398;7.614;2023-03-19T07:40:51;7.10;;;4.00;;
50569;SDS011;36525;49.398;7.614;2023-03-19T07:43:27;6.20;;;2.78;;
50569;SDS011;36525;49.398;7.614;2023-03-19T07:45:55;8.57;;;3.70;;
50569;SDS011;36525;49.398;7.614;2023-03-19T07:48:23;9.15;;;2.58;;
50569;SDS011;36525;49.398;7.614;2023-03-19T07:50:50;9.10;;;2.90;;
50569;SDS011;36525;49.398;7.614;2023-03-19T07:53:17;8.60;;;3.25;;
50569;SDS011;36525;49.398;7.614;2023-03-19T07:55:44;5.95;;;3.00;;
50569;SDS011;36525;49.398;7.614;2023-03-19T07:58:14;7.43;;;2.85;;
50569;SDS011;36525;49.398;7.614;2023-03-19T08:00:42;6.88;;;3.00;;
50569;SDS011;36525;49.398;7.614;2023-03-19T08:03:10;7.75;;;3.10;;
50569;SDS011;36525;49.398;7.614;2023-03-19T08:05:37;9.15;;;2.90;;
50569;SDS011;36525;49.398;7.614;2023-03-19T08:08:05;5.75;;;3.20;;
50569;SDS011;36525;49.398;7.614;2023-03-19T08:10:32;7.47;;;2.85;;
50569;SDS011;36525;49.398;7.614;2023-03-19T08:13:03;5.85;;;2.63;;
50569;SDS011;36525;49.398;7.614;2023-03-19T08:15:30;6.68;;;2.90;;
50569;SDS011;36525;49.398;7.614;2023-03-19T08:17:58;5.70;;;2.75;;
50569;SDS011;36525;49.398;7.614;2023-03-19T08:20:27;9.20;;;3.03;;
50569;SDS011;36525;49.398;7.614;2023-03-19T08:22:54;8.57;;;3.70;;
50569;SDS011;36525;49.398;7.614;2023-03-19T08:25:23;6.72;;;3.50;;
50569;SDS011;36525;49.398;7.614;2023-03-19T08:27:51;9.18;;;3.80;;
50569;SDS011;36525;49.398;7.614;2023-03-19T08:30:18;8.35;;;3.38;;
50569;SDS011;36525;49.398;7.614;2023-03-19T08:32:46;6.47;;;3.45;;
50569;SDS011;36525;49.398;7.614;2023-03-19T08:35:16;11.45;;;3.90;;
50569;SDS011;36525;49.398;7.614;2023-03-19T08:37:44;7.55;;;2.65;;
50569;SDS011;36525;49.398;7.614;2023-03-19T08:40:11;7.65;;;3.13;;
50569;SDS011;36525;49.398;7.614;2023-03-19T08:42:39;8.13;;;3.10;;
50569;SDS011;36525;49.398;7.614;2023-03-19T08:45:10;7.55;;;3.03;;
50569;SDS011;36525;49.398;7.614;2023-03-19T08:47:40;6.68;;;2.97;;
50569;SDS011;36525;49.398;7.614;2023-03-19T08:50:08;10.20;;;3.00;;
50569;SDS011;36525;49.398;7.614;2023-03-19T08:52:37;6.80;;;2.80;;
50569;SDS011;36525;49.398;7.614;2023-03-19T08:55:04;10.48;;;3.63;;
50569;SDS011;36525;49.398;7.614;2023-03-19T08:57:36;8.50;;;3.50;;
50569;SDS011;36525;49.398;7.614;2023-03-19T09:00:05;6.60;;;3.35;;
50569;SDS011;36525;49.398;7.614;2023-03-19T09:02:34;8.30;;;3.05;;
50569;SDS011;36525;49.398;7.614;2023-03-19T09:05:01;6.35;;;3.17;;
50569;SDS011;36525;49.398;7.614;2023-03-19T09:07:28;8.70;;;3.47;;
50569;SDS011;36525;49.398;7.614;2023-03-19T09:09:55;5.88;;;2.70;;
50569;SDS011;36525;49.398;7.614;2023-03-19T09:12:22;6.43;;;2.85;;
50569;SDS011;36525;49.398;7.614;2023-03-19T09:14:51;5.97;;;2.40;;
50569;SDS011;36525;49.398;7.614;2023-03-19T09:17:18;7.50;;;2.80;;
50569;SDS011;36525;49.398;7.614;2023-03-19T09:19:45;5.95;;;2.78;;
50569;SDS011;36525;49.398;7.614;2023-03-19T09:22:12;9.73;;;3.00;;
50569;SDS011;36525;49.398;7.614;2023-03-19T09:24:39;8.05;;;2.70;;
50569;SDS011;36525;49.398;7.614;2023-03-19T09:27:06;8.82;;;2.85;;
50569;SDS011;36525;49.398;7.614;2023-03-19T09:29:36;5.43;;;2.65;;
50569;SDS011;36525;49.398;7.614;2023-03-19T09:32:03;8.10;;;2.67;;
50569;SDS011;36525;49.398;7.614;2023-03-19T09:34:31;6.55;;;2.90;;
50569;SDS011;36525;49.398;7.614;2023-03-19T09:36:58;8.05;;;2.72;;
50569;SDS011;36525;49.398;7.614;2023-03-19T09:39:25;8.20;;;2.60;;
50569;SDS011;36525;49.398;7.614;2023-03-19T09:41:56;4.68;;;2.22;;
50569;SDS011;36525;49.398;7.614;2023-03-19T09:44:32;6.88;;;2.53;;
50569;SDS011;36525;49.398;7.614;2023-03-19T09:49:59;9.52;;;2.92;;
50569;SDS011;36525;49.398;7.614;2023-03-19T09:53:00;6.45;;;2.65;;
50569;SDS011;36525;49.398;7.614;2023-03-19T09:55:39;6.03;;;2.63;;
50569;SDS011;36525;49.398;7.614;2023-03-19T09:58:17;6.65;;;3.10;;
50569;SDS011;36525;49.398;7.614;2023-03-19T10:00:57;7.18;;;2.85;;
50569;SDS011;36525;49.398;7.614;2023-03-19T10:23:33;7.15;;;3.42;;
50569;SDS011;36525;49.398;7.614;2023-03-19T10:26:08;7.85;;;3.55;;
50569;SDS011;36525;49.398;7.614;2023-03-19T10:28:48;9.00;;;3.97;;
50569;SDS011;36525;49.398;7.614;2023-03-19T10:34:43;14.77;;;5.35;;
50569;SDS011;36525;49.398;7.614;2023-03-19T10:37:19;13.93;;;5.15;;
50569;SDS011;36525;49.398;7.614;2023-03-19T10:39:50;8.85;;;4.68;;
50569;SDS011;36525;49.398;7.614;2023-03-19T10:44:57;6.75;;;4.10;;
50569;SDS011;36525;49.398;7.614;2023-03-19T10:47:34;8.60;;;3.63;;
50569;SDS011;36525;49.398;7.614;2023-03-19T10:50:05;6.15;;;2.97;;
50569;SDS011;36525;49.398;7.614;2023-03-19T10:52:42;9.32;;;3.95;;
50569;SDS011;36525;49.398;7.614;2023-03-19T10:55:15;6.45;;;3.17;;
50569;SDS011;36525;49.398;7.614;2023-03-19T10:57:49;9.00;;;3.67;;
50569;SDS011;36525;49.398;7.614;2023-03-19T11:00:23;6.57;;;3.70;;
50569;SDS011;36525;49.398;7.614;2023-03-19T11:02:57;7.60;;;3.00;;
50569;SDS011;36525;49.398;7.614;2023-03-19T11:05:28;5.95;;;2.60;;
50569;SDS011;36525;49.398;7.614;2023-03-19T11:08:03;8.75;;;3.00;;
50569;SDS011;36525;49.398;7.614;2023-03-19T11:10:35;5.35;;;3.05;;
50569;SDS011;36525;49.398;7.614;2023-03-19T11:13:21;4.93;;;2.95;;
50569;SDS011;36525;49.398;7.614;2023-03-19T11:15:52;5.97;;;2.50;;
50569;SDS011;36525;49.398;7.614;2023-03-19T11:18:27;6.38;;;3.00;;
50569;SDS011;36525;49.398;7.614;2023-03-19T11:21:19;6.18;;;3.08;;
50569;SDS011;36525;49.398;7.614;2023-03-19T11:23:51;6.93;;;3.28;;
50569;SDS011;36525;49.398;7.614;2023-03-19T11:26:25;6.38;;;2.95;;
50569;SDS011;36525;49.398;7.614;2023-03-19T11:28:59;6.55;;;2.42;;
50569;SDS011;36525;49.398;7.614;2023-03-19T11:31:33;8.73;;;2.72;;
50569;SDS011;36525;49.398;7.614;2023-03-19T11:34:11;4.22;;;2.08;;
50569;SDS011;36525;49.398;7.614;2023-03-19T11:45:41;9.80;;;4.90;;
50569;SDS011;36525;49.398;7.614;2023-03-19T11:48:36;8.50;;;3.80;;
50569;SDS011;36525;49.398;7.614;2023-03-19T11:51:45;7.53;;;2.63;;
50569;SDS011;36525;49.398;7.614;2023-03-19T11:54:28;5.32;;;2.97;;
50569;SDS011;36525;49.398;7.614;2023-03-19T11:57:17;8.90;;;3.08;;
50569;SDS011;36525;49.398;7.614;2023-03-19T12:12:22;8.30;;;3.58;;
50569;SDS011;36525;49.398;7.614;2023-03-19T12:15:00;5.63;;;3.00;;
50569;SDS011;36525;49.398;7.614;2023-03-19T12:17:40;5.35;;;2.80;;
50569;SDS011;36525;49.398;7.614;2023-03-19T12:25:57;5.65;;;2.72;;
50569;SDS011;36525;49.398;7.614;2023-03-19T12:28:52;6.90;;;2.88;;
50569;SDS011;36525;49.398;7.614;2023-03-19T12:35:17;6.45;;;3.92;;
50569;SDS011;36525;49.398;7.614;2023-03-19T12:38:12;6.90;;;2.92;;
50569;SDS011;36525;49.398;7.614;2023-03-19T12:41:17;6.97;;;2.80;;
50569;SDS011;36525;49.398;7.614;2023-03-19T12:46:36;5.05;;;2.50;;
50569;SDS011;36525;49.398;7.614;2023-03-19T12:54:58;6.00;;;3.00;;
50569;SDS011;36525;49.398;7.614;2023-03-19T12:57:50;5.15;;;2.47;;
50569;SDS011;36525;49.398;7.614;2023-03-19T13:10:55;3.92;;;1.92;;
50569;SDS011;36525;49.398;7.614;2023-03-19T13:13:39;4.07;;;1.75;;
50569;SDS011;36525;49.398;7.614;2023-03-19T13:16:36;3.35;;;1.20;;
50569;SDS011;36525;49.398;7.614;2023-03-19T13:21:57;2.80;;;1.10;;
50569;SDS011;36525;49.398;7.614;2023-03-19T13:24:33;3.13;;;1.73;;
50569;SDS011;36525;49.398;7.614;2023-03-19T13:27:05;2.88;;;1.20;;
50569;SDS011;36525;49.398;7.614;2023-03-19T13:29:52;3.72;;;1.50;;
50569;SDS011;36525;49.398;7.614;2023-03-19T13:32:39;3.13;;;1.30;;
50569;SDS011;36525;49.398;7.614;2023-03-19T13:40:50;2.85;;;1.20;;
50569;SDS011;36525;49.398;7.614;2023-03-19T13:49:21;2.60;;;1.25;;
50569;SDS011;36525;49.398;7.614;2023-03-19T13:52:33;3.33;;;0.93;;
50569;SDS011;36525;49.398;7.614;2023-03-19T13:55:18;2.28;;;1.10;;
50569;SDS011;36525;49.398;7.614;2023-03-19T13:57:53;4.10;;;1.50;;
50569;SDS011;36525;49.398;7.614;2023-03-19T14:03:21;3.33;;;1.50;;
50569;SDS011;36525;49.398;7.614;2023-03-19T14:05:58;4.93;;;1.50;;
50569;SDS011;36525;49.398;7.614;2023-03-19T14:08:41;3.70;;;1.90;;
50569;SDS011;36525;49.398;7.614;2023-03-19T14:11:20;3.90;;;1.52;;
50569;SDS011;36525;49.398;7.614;2023-03-19T14:16:34;5.78;;;1.88;;
50569;SDS011;36525;49.398;7.614;2023-03-19T14:19:09;4.95;;;1.63;;
50569;SDS011;36525;49.398;7.614;2023-03-19T14:21:44;4.22;;;1.65;;
50569;SDS011;36525;49.398;7.614;2023-03-19T14:27:19;3.90;;;1.60;;
50569;SDS011;36525;49.398;7.614;2023-03-19T14:29:55;4.55;;;1.80;;
50569;SDS011;36525;49.398;7.614;2023-03-19T14:32:31;3.88;;;1.13;;
50569;SDS011;36525;49.398;7.614;2023-03-19T14:35:03;4.20;;;1.40;;
50569;SDS011;36525;49.398;7.614;2023-03-19T14:46:08;3.92;;;1.20;;
50569;SDS011;36525;49.398;7.614;2023-03-19T14:52:24;2.58;;;0.82;;
50569;SDS011;36525;49.398;7.614;2023-03-19T14:55:13;1.80;;;0.90;;
50569;SDS011;36525;49.398;7.614;2023-03-19T14:57:45;2.38;;;0.93;;
50569;SDS011;36525;49.398;7.614;2023-03-19T15:00:14;2.38;;;0.90;;
50569;SDS011;36525;49.398;7.614;2023-03-19T15:02:53;2.60;;;1.05;;
50569;SDS011;36525;49.398;7.614;2023-03-19T15:05:23;2.30;;;0.90;;
50569;SDS011;36525;49.398;7.614;2023-03-19T15:08:04;2.20;;;0.80;;
50569;SDS011;36525;49.398;7.614;2023-03-19T15:10:46;3.67;;;1.33;;
50569;SDS011;36525;49.398;7.614;2023-03-19T15:20:22;6.43;;;1.92;;
50569;SDS011;36525;49.398;7.614;2023-03-19T15:22:52;1.73;;;0.80;;
50569;SDS011;36525;49.398;7.614;2023-03-19T15:25:26;0.50;;;0.30;;
50569;SDS011;36525;49.398;7.614;2023-03-19T15:28:08;0.40;;;0.30;;
50569;SDS011;36525;49.398;7.614;2023-03-19T15:30:39;4.78;;;1.67;;
50569;SDS011;36525;49.398;7.614;2023-03-19T15:33:23;2.13;;;0.90;;
50569;SDS011;36525;49.398;7.614;2023-03-19T15:41:24;1.05;;;0.50;;
50569;SDS011;36525;49.398;7.614;2023-03-19T15:43:55;1.40;;;0.20;;
50569;SDS011;36525;49.398;7.614;2023-03-19T15:46:24;0.30;;;0.30;;
50569;SDS011;36525;49.398;7.614;2023-03-19T15:51:37;1.42;;;0.60;;
50569;SDS011;36525;49.398;7.614;2023-03-19T15:54:07;2.28;;;1.10;;
50569;SDS011;36525;49.398;7.614;2023-03-19T15:56:37;1.00;;;0.60;;
50569;SDS011;36525;49.398;7.614;2023-03-19T15:59:04;0.30;;;0.30;;
50569;SDS011;36525;49.398;7.614;2023-03-19T16:01:32;0.38;;;0.30;;
50569;SDS011;36525;49.398;7.614;2023-03-19T16:04:04;1.25;;;0.35;;
50569;SDS011;36525;49.398;7.614;2023-03-19T16:06:37;0.63;;;0.30;;
50569;SDS011;36525;49.398;7.614;2023-03-19T16:09:21;0.75;;;0.30;;
50569;SDS011;36525;49.398;7.614;2023-03-19T16:11:55;0.50;;;0.30;;
50569;SDS011;36525;49.398;7.614;2023-03-19T16:17:11;0.75;;;0.40;;
50569;SDS011;36525;49.398;7.614;2023-03-19T16:19:54;1.63;;;0.70;;
50569;SDS011;36525;49.398;7.614;2023-03-19T16:22:29;0.77;;;0.50;;
50569;SDS011;36525;49.398;7.614;2023-03-19T16:24:59;1.08;;;0.50;;
50569;SDS011;36525;49.398;7.614;2023-03-19T16:27:33;0.60;;;0.40;;
50569;SDS011;36525;49.398;7.614;2023-03-19T16:30:11;1.27;;;0.60;;
50569;SDS011;36525;49.398;7.614;2023-03-19T16:32:58;0.95;;;0.30;;
50569;SDS011;36525;49.398;7.614;2023-03-19T16:35:31;3.08;;;0.70;;
50569;SDS011;36525;49.398;7.614;2023-03-19T16:38:16;1.17;;;0.50;;
50569;SDS011;36525;49.398;7.614;2023-03-19T16:40:49;1.63;;;0.63;;
50569;SDS011;36525;49.398;7.614;2023-03-19T16:43:59;0.77;;;0.50;;
50569;SDS011;36525;49.398;7.614;2023-03-19T16:46:42;1.65;;;0.47;;
50569;SDS011;36525;49.398;7.614;2023-03-19T16:49:10;2.05;;;0.55;;
50569;SDS011;36525;49.398;7.614;2023-03-19T16:51:38;0.43;;;0.30;;
50569;SDS011;36525;49.398;7.614;2023-03-19T16:54:05;0.40;;;0.30;;
50569;SDS011;36525;49.398;7.614;2023-03-19T16:56:33;0.82;;;0.40;;
50569;SDS011;36525;49.398;7.614;2023-03-19T16:59:00;0.32;;;0.30;;
50569;SDS011;36525;49.398;7.614;2023-03-19T17:01:29;1.85;;;0.30;;
50569;SDS011;36525;49.398;7.614;2023-03-19T17:03:56;0.77;;;0.35;;
50569;SDS011;36525;49.398;7.614;2023-03-19T17:06:24;0.80;;;0.40;;
50569;SDS011;36525;49.398;7.614;2023-03-19T17:08:54;1.40;;;0.70;;
50569;SDS011;36525;49.398;7.614;2023-03-19T17:11:28;3.70;;;1.52;;
50569;SDS011;36525;49.398;7.614;2023-03-19T17:14:02;7.40;;;3.92;;
50569;SDS011;36525;49.398;7.614;2023-03-19T17:16:32;3.40;;;1.15;;
50569;SDS011;36525;49.398;7.614;2023-03-19T17:19:11;1.35;;;0.70;;
50569;SDS011;36525;49.398;7.614;2023-03-19T17:21:55;1.85;;;0.57;;
50569;SDS011;36525;49.398;7.614;2023-03-19T17:24:26;1.10;;;0.50;;